Time;durP1;ratioP1;P1;durP2;ratioP2;P2;SDS_P1;SDS_P2;PMS_P1;PMS_P2;Temp;Humidity;BMP_temperature;BMP_pressure;BME280_temperature;BME280_humidity;BME280_pressure;Samples;Min_cycle;Max_cycle;Signal;HPM_P1;HPM_P2
2022/08/26 00:01:24;;;;;;;16.92;10.10;;;23.80;99.90;;;;;;5056903;28;20029;-71
2022/08/26 00:03:50;;;;;;;17.17;9.02;;;23.70;99.90;;;;;;5034596;28;20024;-71
2022/08/26 00:06:16;;;;;;;15.10;8.38;;;23.80;99.90;;;;;;5037908;28;20036;-70
2022/08/26 00:08:42;;;;;;;11.25;7.00;;;23.70;99.90;;;;;;5056929;28;20025;-70
2022/08/26 00:11:08;;;;;;;14.50;6.68;;;23.70;99.90;;;;;;5057610;28;20017;-70
2022/08/26 00:13:35;;;;;;;15.32;6.88;;;23.70;99.90;;;;;;5056384;28;20033;-71
2022/08/26 00:16:02;;;;;;;10.32;6.03;;;23.70;99.90;;;;;;5057247;28;20027;-70
2022/08/26 00:18:28;;;;;;;10.35;5.93;;;23.70;99.90;;;;;;5058240;28;20025;-71
2022/08/26 00:20:54;;;;;;;12.90;6.03;;;23.50;99.90;;;;;;5057963;28;20025;-70
2022/08/26 00:23:20;;;;;;;8.82;5.07;;;23.50;99.90;;;;;;5060635;28;20031;-71
2022/08/26 00:25:46;;;;;;;11.43;5.28;;;23.60;99.90;;;;;;5060328;28;20110;-71
2022/08/26 00:28:12;;;;;;;10.18;4.78;;;23.60;99.90;;;;;;5060509;28;20501;-71
2022/08/26 00:30:38;;;;;;;13.88;5.18;;;23.60;99.90;;;;;;5059952;28;20509;-71
2022/08/26 00:33:04;;;;;;;8.40;4.70;;;23.50;99.90;;;;;;5059851;28;20491;-71
2022/08/26 00:35:31;;;;;;;10.70;4.95;;;23.50;99.90;;;;;;5061021;28;20016;-70
2022/08/26 00:37:58;;;;;;;10.35;5.30;;;23.50;99.90;;;;;;5056443;28;20024;-72
2022/08/26 00:40:34;;;;;;;10.02;4.45;;;23.50;99.90;;;;;;5058567;28;20396;-72
2022/08/26 00:43:02;;;;;;;9.95;4.60;;;23.50;99.90;;;;;;5057497;28;20091;-72
2022/08/26 00:45:38;;;;;;;8.07;3.95;;;23.40;99.90;;;;;;5042861;28;20416;-71
2022/08/26 00:48:05;;;;;;;6.80;4.28;;;23.50;99.90;;;;;;5042126;28;20025;-71
2022/08/26 00:50:35;;;;;;;12.27;5.00;;;23.40;99.90;;;;;;5060901;28;20111;-72
2022/08/26 00:53:03;;;;;;;7.07;3.92;;;23.50;99.90;;;;;;5058065;28;20068;-73
2022/08/26 00:55:37;;;;;;;8.40;4.57;;;23.50;99.90;;;;;;5060558;28;20104;-71
2022/08/26 00:58:05;;;;;;;8.85;4.45;;;23.50;99.90;;;;;;5042092;28;20048;-72
2022/08/26 01:00:31;;;;;;;8.15;4.20;;;23.50;99.90;;;;;;5054710;28;20036;-73
2022/08/26 01:03:00;;;;;;;10.75;4.28;;;23.50;99.90;;;;;;5059101;28;20024;-73
2022/08/26 01:05:27;;;;;;;13.93;4.38;;;23.50;99.90;;;;;;5057292;28;20389;-75
2022/08/26 01:07:53;;;;;;;6.65;3.42;;;23.40;99.90;;;;;;5055822;28;20021;-74
2022/08/26 01:10:23;;;;;;;15.23;3.95;;;23.50;99.90;;;;;;5059410;28;20029;-74
2022/08/26 01:12:54;;;;;;;6.78;3.13;;;23.50;99.90;;;;;;5057866;28;20470;-72
2022/08/26 01:15:24;;;;;;;11.40;4.25;;;23.40;99.90;;;;;;5060008;28;20029;-73
2022/08/26 01:17:51;;;;;;;10.10;4.50;;;23.40;99.90;;;;;;5058929;28;20101;-75
2022/08/26 01:20:54;;;;;;;9.55;3.03;;;23.50;99.90;;;;;;5042208;28;20021;-75
2022/08/26 01:23:20;;;;;;;4.13;3.22;;;23.40;99.90;;;;;;5057931;28;20056;-71
2022/08/26 01:25:51;;;;;;;9.75;3.28;;;23.40;99.90;;;;;;5059068;28;20029;-74
2022/08/26 01:28:24;;;;;;;7.70;4.05;;;23.30;99.90;;;;;;5057537;28;20424;-73
2022/08/26 01:30:52;;;;;;;8.93;3.22;;;23.30;99.90;;;;;;5055312;28;20492;-72
2022/08/26 01:33:24;;;;;;;10.35;3.90;;;23.30;99.90;;;;;;5060100;28;20023;-71
2022/08/26 01:35:50;;;;;;;6.72;3.00;;;23.20;99.90;;;;;;5040295;28;20059;-73
2022/08/26 01:38:17;;;;;;;9.75;3.58;;;23.10;99.90;;;;;;5059108;28;20053;-72
2022/08/26 01:40:44;;;;;;;14.60;3.97;;;23.10;99.90;;;;;;5058243;28;20028;-73
2022/08/26 01:43:16;;;;;;;10.30;4.10;;;23.10;99.90;;;;;;5059531;28;20032;-76
2022/08/26 01:45:42;;;;;;;12.38;3.47;;;23.10;99.90;;;;;;5058734;28;20023;-71
2022/08/26 01:48:14;;;;;;;10.13;4.53;;;23.10;99.90;;;;;;5059518;28;20469;-76
2022/08/26 01:50:42;;;;;;;9.70;3.90;;;23.10;99.90;;;;;;5058674;28;20020;-71
2022/08/26 01:53:11;;;;;;;8.65;3.65;;;23.10;99.90;;;;;;5057218;28;20064;-76
2022/08/26 01:55:43;;;;;;;12.05;3.70;;;23.00;99.90;;;;;;5030958;28;20021;-77
2022/08/26 01:58:16;;;;;;;7.93;3.93;;;23.10;99.90;;;;;;5055505;28;20071;-77
2022/08/26 02:00:43;;;;;;;6.68;3.55;;;23.10;99.90;;;;;;5056727;28;20255;-71
2022/08/26 02:03:20;;;;;;;8.00;3.55;;;23.10;99.90;;;;;;5059079;28;20488;-77
2022/08/26 02:06:02;;;;;;;8.60;4.10;;;23.20;99.90;;;;;;5057174;28;20017;-77
2022/08/26 02:08:36;;;;;;;11.05;3.95;;;23.00;99.90;;;;;;5057140;28;20078;-77
2022/08/26 02:11:03;;;;;;;8.38;3.80;;;23.00;99.90;;;;;;5057999;28;20025;-75
2022/08/26 02:13:31;;;;;;;8.07;4.70;;;22.90;99.90;;;;;;5059549;28;20090;-76
2022/08/26 02:15:59;;;;;;;10.32;4.50;;;22.90;99.90;;;;;;5057794;28;20009;-77
2022/08/26 02:18:26;;;;;;;7.18;3.95;;;23.00;99.90;;;;;;5056458;28;20016;-75
2022/08/26 02:20:53;;;;;;;11.50;4.78;;;23.00;99.90;;;;;;5056180;28;20091;-77
2022/08/26 02:23:19;;;;;;;10.77;4.32;;;23.10;99.90;;;;;;5058949;28;20025;-77
2022/08/26 02:25:52;;;;;;;15.20;4.60;;;23.00;99.90;;;;;;5056576;28;20396;-77
2022/08/26 02:28:18;;;;;;;12.30;4.80;;;23.00;99.90;;;;;;5057601;28;20039;-74
2022/08/26 02:30:45;;;;;;;10.65;4.50;;;23.00;99.90;;;;;;5040188;28;20717;-71
2022/08/26 02:33:12;;;;;;;8.60;4.60;;;23.00;99.90;;;;;;5040609;28;20021;-72
2022/08/26 02:35:38;;;;;;;8.25;4.72;;;23.10;99.90;;;;;;5056700;28;20062;-71
2022/08/26 02:38:07;;;;;;;8.45;4.40;;;23.10;99.90;;;;;;5056506;28;20037;-71
2022/08/26 02:40:36;;;;;;;10.60;4.97;;;23.20;99.90;;;;;;5058463;28;20256;-71
2022/08/26 02:43:02;;;;;;;8.15;4.45;;;23.20;99.90;;;;;;5057608;28;21637;-71
2022/08/26 02:45:28;;;;;;;8.05;4.65;;;23.20;99.90;;;;;;5034788;28;20032;-71
2022/08/26 02:47:56;;;;;;;9.15;4.63;;;23.20;99.90;;;;;;5056631;28;20337;-71
2022/08/26 02:50:23;;;;;;;11.07;4.85;;;23.20;99.90;;;;;;5040891;28;20111;-70
2022/08/26 02:52:49;;;;;;;8.80;5.00;;;23.10;99.90;;;;;;5058533;28;20021;-71
2022/08/26 02:55:15;;;;;;;11.93;4.82;;;23.20;99.90;;;;;;5060318;28;20017;-75
2022/08/26 02:57:41;;;;;;;12.65;5.50;;;23.10;99.90;;;;;;5057625;28;20107;-70
2022/08/26 03:00:13;;;;;;;11.07;4.78;;;23.20;99.90;;;;;;5028317;28;20456;-71
2022/08/26 03:02:39;;;;;;;13.65;5.95;;;23.20;99.90;;;;;;5050436;28;20048;-72
2022/08/26 03:05:06;;;;;;;8.18;5.63;;;23.10;99.90;;;;;;5053139;28;20056;-74
2022/08/26 03:07:31;;;;;;;13.07;5.28;;;23.20;99.90;;;;;;5052570;28;20079;-71
2022/08/26 03:09:57;;;;;;;11.30;5.45;;;23.20;99.90;;;;;;5052237;28;20435;-75
2022/08/26 03:12:24;;;;;;;11.55;6.10;;;23.20;99.90;;;;;;5053407;28;20044;-71
2022/08/26 03:14:49;;;;;;;12.07;5.43;;;23.20;99.90;;;;;;5060050;28;20029;-71
2022/08/26 03:17:15;;;;;;;11.07;5.85;;;23.20;99.90;;;;;;5059776;28;20021;-71
2022/08/26 03:19:41;;;;;;;14.35;6.22;;;23.20;99.90;;;;;;5055712;28;20021;-70
2022/08/26 03:22:06;;;;;;;12.30;4.82;;;23.20;99.90;;;;;;5019748;28;20020;-71
2022/08/26 03:24:32;;;;;;;11.40;5.68;;;23.10;99.90;;;;;;5033387;28;20025;-71
2022/08/26 03:26:58;;;;;;;9.50;5.20;;;23.20;99.90;;;;;;5051606;28;20416;-71
2022/08/26 03:32:08;;;;;;;10.52;5.60;;;23.20;99.90;;;;;;5051041;28;20534;-70
2022/08/26 03:34:34;;;;;;;10.70;5.03;;;23.10;99.90;;;;;;5051573;28;20111;-77
2022/08/26 03:36:59;;;;;;;8.95;5.43;;;23.10;99.90;;;;;;5050939;28;20024;-73
2022/08/26 03:39:26;;;;;;;13.98;5.32;;;23.10;99.90;;;;;;5047681;28;20540;-74
2022/08/26 03:41:51;;;;;;;12.40;4.70;;;23.10;99.90;;;;;;5038536;28;20469;-77
2022/08/26 03:44:17;;;;;;;12.25;5.20;;;23.10;99.90;;;;;;5051600;28;20029;-70
2022/08/26 03:46:43;;;;;;;14.27;5.40;;;23.20;99.90;;;;;;5051338;28;20488;-71
2022/08/26 03:49:09;;;;;;;13.23;5.25;;;23.20;99.90;;;;;;5033326;28;20041;-70
2022/08/26 03:51:36;;;;;;;14.82;4.80;;;23.10;99.90;;;;;;5050017;28;20013;-70
2022/08/26 03:54:02;;;;;;;9.25;4.57;;;23.10;99.90;;;;;;5055357;28;20025;-71
2022/08/26 03:56:32;;;;;;;6.93;4.38;;;23.10;99.90;;;;;;5048639;28;20033;-72
2022/08/26 03:58:59;;;;;;;8.15;4.63;;;23.10;99.90;;;;;;5054559;28;20028;-73
2022/08/26 04:01:26;;;;;;;9.90;4.18;;;23.00;99.90;;;;;;5055171;28;20115;-72
2022/08/26 04:03:58;;;;;;;10.88;4.40;;;23.00;99.90;;;;;;5054885;28;20033;-71
2022/08/26 04:06:36;;;;;;;11.00;3.92;;;23.10;99.90;;;;;;5056144;28;20029;-71
2022/08/26 04:09:07;;;;;;;7.47;4.55;;;23.00;99.90;;;;;;5055336;28;20032;-72
2022/08/26 04:11:34;;;;;;;13.32;4.47;;;23.00;99.90;;;;;;5037905;28;20063;-71
2022/08/26 04:14:03;;;;;;;7.65;4.00;;;22.90;99.90;;;;;;5056063;28;20033;-71
2022/08/26 04:16:30;;;;;;;11.15;3.67;;;23.00;99.90;;;;;;5055604;28;20017;-71
2022/08/26 04:18:56;;;;;;;10.10;5.05;;;23.00;99.90;;;;;;5055181;28;20488;-71
2022/08/26 04:21:23;;;;;;;7.78;4.10;;;23.00;99.90;;;;;;5051332;28;20028;-71
2022/08/26 04:23:49;;;;;;;6.75;4.15;;;22.90;99.90;;;;;;5049961;28;20056;-72
2022/08/26 04:26:17;;;;;;;7.93;4.25;;;22.80;99.90;;;;;;5051970;28;20099;-71
2022/08/26 04:28:43;;;;;;;12.20;4.07;;;22.80;99.90;;;;;;5035663;28;20125;-71
2022/08/26 04:31:14;;;;;;;9.02;3.95;;;22.90;99.90;;;;;;5035209;28;20105;-72
2022/08/26 04:33:41;;;;;;;9.55;3.88;;;22.90;99.90;;;;;;5034319;28;20096;-72
2022/08/26 04:36:07;;;;;;;10.18;3.63;;;22.90;99.90;;;;;;5048805;28;20539;-72
2022/08/26 04:38:33;;;;;;;7.13;3.47;;;22.90;99.90;;;;;;5055599;28;20029;-71
2022/08/26 04:40:59;;;;;;;8.15;3.60;;;22.90;99.90;;;;;;5055379;28;20505;-70
2022/08/26 04:43:27;;;;;;;9.75;3.33;;;22.90;99.90;;;;;;5055264;28;20505;-71
2022/08/26 04:45:54;;;;;;;8.23;3.50;;;22.90;99.90;;;;;;5055402;28;20021;-71
2022/08/26 04:48:19;;;;;;;9.27;3.53;;;23.00;99.90;;;;;;5055160;28;20385;-71
2022/08/26 04:50:45;;;;;;;10.57;3.72;;;23.00;99.90;;;;;;5051437;28;20076;-71
2022/08/26 04:53:11;;;;;;;8.50;3.47;;;23.00;99.90;;;;;;5035263;28;20032;-71
2022/08/26 04:55:38;;;;;;;10.63;3.38;;;23.00;99.90;;;;;;5035265;28;20482;-71
2022/08/26 04:58:04;;;;;;;9.38;3.72;;;23.00;99.90;;;;;;5049597;28;20029;-71
2022/08/26 05:00:29;;;;;;;7.25;3.30;;;23.00;99.90;;;;;;5050258;28;20026;-71
2022/08/26 05:02:55;;;;;;;7.93;3.88;;;23.00;99.90;;;;;;5033656;28;20113;-70
2022/08/26 05:05:21;;;;;;;11.20;3.40;;;23.00;99.90;;;;;;5035139;28;20044;-71
2022/08/26 05:07:46;;;;;;;10.55;4.13;;;22.90;99.90;;;;;;5035131;28;20108;-71
2022/08/26 05:10:12;;;;;;;10.57;3.75;;;22.90;99.90;;;;;;5036697;28;20022;-71
2022/08/26 05:12:38;;;;;;;7.72;3.67;;;23.00;99.90;;;;;;5039363;28;20385;-71
2022/08/26 05:15:04;;;;;;;8.63;3.20;;;22.90;99.90;;;;;;5036652;28;20025;-71
2022/08/26 05:17:30;;;;;;;7.13;3.53;;;22.90;99.90;;;;;;5054929;28;20032;-73
2022/08/26 05:19:55;;;;;;;8.18;3.33;;;22.90;99.90;;;;;;5054101;28;20021;-72
2022/08/26 05:22:21;;;;;;;8.02;3.67;;;22.90;99.90;;;;;;5054734;28;20588;-74
2022/08/26 05:24:47;;;;;;;7.50;3.45;;;22.90;99.90;;;;;;5054478;28;20029;-74
2022/08/26 05:27:13;;;;;;;7.18;3.40;;;22.80;99.90;;;;;;5054308;28;20036;-72
2022/08/26 05:29:39;;;;;;;9.90;3.60;;;22.90;99.90;;;;;;5054380;28;20121;-72
2022/08/26 05:32:05;;;;;;;14.45;3.63;;;22.90;99.90;;;;;;5016348;28;20091;-72
2022/08/26 05:34:31;;;;;;;11.35;4.63;;;22.90;99.90;;;;;;5034517;28;20056;-73
2022/08/26 05:36:57;;;;;;;6.50;3.80;;;22.90;99.90;;;;;;5034486;28;20057;-72
2022/08/26 05:39:23;;;;;;;8.57;4.00;;;23.00;99.90;;;;;;5034560;28;20029;-76
2022/08/26 05:41:49;;;;;;;7.55;4.32;;;23.00;99.90;;;;;;5034378;28;20017;-74
2022/08/26 05:44:17;;;;;;;9.70;4.32;;;22.90;99.90;;;;;;5034123;28;20547;-71
2022/08/26 05:46:43;;;;;;;4.97;3.75;;;22.80;99.90;;;;;;5033236;28;20010;-71
2022/08/26 05:49:10;;;;;;;10.00;5.03;;;22.80;99.90;;;;;;5033174;28;20037;-72
2022/08/26 05:51:37;;;;;;;8.00;4.25;;;22.80;99.90;;;;;;5034548;28;20026;-73
2022/08/26 05:54:05;;;;;;;8.65;4.43;;;22.80;99.90;;;;;;5033714;28;20033;-72
2022/08/26 05:56:31;;;;;;;7.68;4.13;;;22.80;99.90;;;;;;5032425;28;20406;-75
2022/08/26 05:59:00;;;;;;;10.40;4.80;;;22.90;99.90;;;;;;5034735;28;20104;-70
2022/08/26 06:01:27;;;;;;;9.10;3.55;;;22.80;99.90;;;;;;5033473;28;20013;-73
2022/08/26 06:03:57;;;;;;;8.48;4.10;;;22.90;99.90;;;;;;5033919;28;20037;-73
2022/08/26 06:06:25;;;;;;;10.90;4.47;;;22.90;99.90;;;;;;5030614;28;20106;-71
2022/08/26 06:08:51;;;;;;;11.00;4.38;;;22.90;99.90;;;;;;5005337;28;20030;-72
2022/08/26 06:11:20;;;;;;;7.75;3.95;;;22.80;99.90;;;;;;5004644;28;20108;-73
2022/08/26 06:13:46;;;;;;;13.45;5.20;;;22.90;99.90;;;;;;5023683;28;20500;-71
2022/08/26 06:16:14;;;;;;;10.60;3.90;;;22.80;99.90;;;;;;5022475;28;20026;-72
2022/08/26 06:18:43;;;;;;;8.90;4.13;;;22.90;99.90;;;;;;5024126;28;20025;-73
2022/08/26 06:21:24;;;;;;;9.73;3.90;;;22.90;99.90;;;;;;5025643;28;20045;-71
2022/08/26 06:26:37;;;;;;;5.57;3.40;;;22.80;99.90;;;;;;5018564;28;20041;-71
2022/08/26 06:29:04;;;;;;;5.88;3.42;;;22.90;99.90;;;;;;5023231;28;20038;-69
2022/08/26 06:31:33;;;;;;;5.95;2.95;;;22.90;99.90;;;;;;5050380;28;20043;-70
2022/08/26 06:33:58;;;;;;;5.05;3.40;;;22.80;99.90;;;;;;5052559;28;20029;-72
2022/08/26 06:36:26;;;;;;;6.05;3.10;;;22.90;99.90;;;;;;5052115;28;20532;-74
2022/08/26 06:38:53;;;;;;;5.63;2.78;;;22.80;99.90;;;;;;5053023;28;20029;-71
2022/08/26 06:41:21;;;;;;;9.15;3.08;;;22.90;99.90;;;;;;5053295;28;20100;-72
2022/08/26 06:43:49;;;;;;;9.63;2.50;;;22.80;99.90;;;;;;5053150;28;20049;-71
2022/08/26 06:46:16;;;;;;;8.18;2.70;;;22.80;99.90;;;;;;5054706;28;20059;-73
2022/08/26 06:48:42;;;;;;;6.38;2.50;;;22.90;99.90;;;;;;5060735;28;20035;-71
2022/08/26 06:51:16;;;;;;;6.55;2.15;;;22.80;99.90;;;;;;5058096;28;20031;-71
2022/08/26 06:53:45;;;;;;;4.93;2.15;;;22.90;99.90;;;;;;5063420;28;20044;-70
2022/08/26 06:56:12;;;;;;;6.07;2.53;;;22.80;99.90;;;;;;5062898;28;20461;-71
2022/08/26 06:58:39;;;;;;;5.10;2.15;;;22.80;99.90;;;;;;5061450;28;20033;-71
2022/08/26 07:01:27;;;;;;;7.63;2.00;;;22.80;99.90;;;;;;5037921;28;20112;-71
2022/08/26 07:03:56;;;;;;;3.25;1.60;;;22.80;99.90;;;;;;5032903;28;20041;-72
2022/08/26 07:06:24;;;;;;;5.88;2.13;;;22.80;99.90;;;;;;5048875;28;20017;-72
2022/08/26 07:08:51;;;;;;;5.50;1.40;;;23.00;99.90;;;;;;5049811;28;20024;-71
2022/08/26 07:11:18;;;;;;;5.63;1.70;;;23.00;99.90;;;;;;5061636;28;20039;-70
2022/08/26 07:13:45;;;;;;;8.77;1.88;;;22.90;99.90;;;;;;5043316;28;20032;-73
2022/08/26 07:16:13;;;;;;;4.68;1.83;;;23.00;99.90;;;;;;5061548;28;20029;-71
2022/08/26 07:18:41;;;;;;;5.35;1.67;;;23.00;99.90;;;;;;5061049;28;20059;-71
2022/08/26 07:21:09;;;;;;;5.47;1.50;;;23.10;99.90;;;;;;5066359;28;20025;-71
2022/08/26 07:23:35;;;;;;;3.88;1.27;;;23.10;99.90;;;;;;5050102;28;20025;-70
2022/08/26 07:26:17;;;;;;;2.58;1.58;;;23.20;99.90;;;;;;5054332;28;20025;-70
2022/08/26 07:28:45;;;;;;;3.60;1.47;;;23.20;99.90;;;;;;5032774;28;20075;-70
2022/08/26 07:31:12;;;;;;;7.55;1.42;;;23.20;99.90;;;;;;5032097;28;20025;-70
2022/08/26 07:33:40;;;;;;;6.70;1.75;;;23.10;99.90;;;;;;5041764;28;20029;-71
2022/08/26 07:36:07;;;;;;;5.45;1.55;;;23.20;99.90;;;;;;5047704;28;20466;-71
2022/08/26 07:38:34;;;;;;;4.07;1.40;;;23.20;99.90;;;;;;5032690;28;20036;-70
2022/08/26 07:41:00;;;;;;;3.83;1.23;;;23.30;99.90;;;;;;5046307;28;20103;-71
2022/08/26 07:43:27;;;;;;;2.28;1.20;;;23.20;99.90;;;;;;5026270;28;20712;-70
2022/08/26 07:45:53;;;;;;;2.72;1.00;;;23.20;99.90;;;;;;5043267;28;20138;-70
2022/08/26 07:48:19;;;;;;;5.88;1.50;;;23.30;99.90;;;;;;5053341;28;20024;-70
2022/08/26 07:50:45;;;;;;;3.40;1.50;;;23.40;99.90;;;;;;5042558;28;20801;-70
2022/08/26 07:53:11;;;;;;;5.35;1.38;;;23.40;99.90;;;;;;5050525;28;20101;-70
2022/08/26 07:55:37;;;;;;;6.30;1.35;;;23.50;99.90;;;;;;5042721;28;20025;-71
2022/08/26 07:58:04;;;;;;;4.47;1.30;;;23.40;99.90;;;;;;5055929;28;20025;-70
2022/08/26 08:00:31;;;;;;;7.28;1.63;;;23.40;99.90;;;;;;5050021;28;20164;-69
2022/08/26 08:02:58;;;;;;;3.58;1.35;;;23.40;99.90;;;;;;5053084;28;20025;-69
2022/08/26 08:05:24;;;;;;;5.85;1.50;;;23.30;99.90;;;;;;5034248;28;20536;-70
2022/08/26 08:07:51;;;;;;;4.53;1.23;;;23.40;99.90;;;;;;5041905;28;20021;-72
2022/08/26 08:10:23;;;;;;;4.18;1.50;;;23.40;99.90;;;;;;5045179;28;20065;-70
2022/08/26 08:12:50;;;;;;;4.35;1.60;;;23.50;99.90;;;;;;5043871;28;20432;-69
2022/08/26 08:15:18;;;;;;;4.88;1.25;;;23.50;99.90;;;;;;5048185;28;20033;-69
2022/08/26 08:17:44;;;;;;;1.75;0.88;;;23.50;99.90;;;;;;5060351;28;20388;-69
2022/08/26 08:20:12;;;;;;;4.25;1.42;;;23.50;99.90;;;;;;5055360;28;20025;-70
2022/08/26 08:22:38;;;;;;;9.48;1.52;;;23.60;99.90;;;;;;5051924;28;20029;-68
2022/08/26 08:25:04;;;;;;;5.38;1.25;;;23.60;99.90;;;;;;5050930;28;20025;-69
2022/08/26 08:27:34;;;;;;;4.28;1.25;;;23.60;99.90;;;;;;5056684;28;20073;-69
2022/08/26 08:30:00;;;;;;;3.67;1.45;;;23.60;99.90;;;;;;5056438;28;20124;-72
2022/08/26 08:32:26;;;;;;;3.33;1.10;;;23.70;99.90;;;;;;5056672;28;20133;-69
2022/08/26 08:34:52;;;;;;;3.10;1.23;;;23.60;99.90;;;;;;5058475;28;20029;-69
2022/08/26 08:37:18;;;;;;;3.60;1.13;;;23.70;99.90;;;;;;5059800;28;20026;-69
2022/08/26 08:39:44;;;;;;;5.45;1.38;;;23.70;99.90;;;;;;5062913;28;20081;-69
2022/08/26 08:42:23;;;;;;;3.65;1.17;;;23.70;99.90;;;;;;5071909;28;20401;-70
2022/08/26 08:44:51;;;;;;;7.22;1.63;;;23.70;99.90;;;;;;5071832;28;20044;-70
2022/08/26 08:47:24;;;;;;;3.05;1.25;;;23.70;99.90;;;;;;5064473;28;20103;-70
2022/08/26 08:49:51;;;;;;;5.47;1.40;;;23.70;99.90;;;;;;5075202;28;20396;-71
2022/08/26 08:52:36;;;;;;;4.95;1.27;;;23.70;99.90;;;;;;5052952;28;20465;-69
2022/08/26 08:55:05;;;;;;;5.85;1.20;;;23.80;99.90;;;;;;5058542;28;20362;-68
2022/08/26 08:57:43;;;;;;;3.70;1.30;;;23.80;99.90;;;;;;5035002;28;20082;-68
2022/08/26 09:00:15;;;;;;;5.28;1.55;;;23.70;99.90;;;;;;5040120;28;20025;-69
2022/08/26 09:02:44;;;;;;;;;;;23.60;99.90;;;;;;5040997;28;20032;-68
2022/08/26 09:05:31;;;;;;;5.90;1.35;;;23.60;99.90;;;;;;5053049;28;19909;-70
2022/08/26 09:08:28;;;;;;;6.18;1.38;;;23.70;99.90;;;;;;5048811;28;20029;-71
2022/08/26 09:10:58;;;;;;;5.88;1.38;;;23.70;99.90;;;;;;5039604;28;20067;-69
2022/08/26 09:13:24;;;;;;;4.10;1.10;;;23.80;99.90;;;;;;5074404;28;20025;-73
2022/08/26 09:15:53;;;;;;;10.45;1.50;;;23.70;99.90;;;;;;5074883;28;20020;-72
2022/08/26 09:18:54;;;;;;;4.50;1.58;;;23.80;99.90;;;;;;5046128;28;20382;-69
2022/08/26 09:21:24;;;;;;;7.22;1.90;;;23.90;99.90;;;;;;5037825;28;20033;-70
2022/08/26 09:23:51;;;;;;;6.75;1.70;;;23.90;99.90;;;;;;5054772;28;20044;-72
2022/08/26 09:26:28;;;;;;;8.18;1.58;;;24.00;99.90;;;;;;5054301;28;20494;-70
2022/08/26 09:29:00;;;;;;;3.30;1.75;;;23.90;99.90;;;;;;5054370;28;20029;-73
2022/08/26 09:31:26;;;;;;;4.43;1.47;;;24.00;99.90;;;;;;5054307;28;20086;-68
2022/08/26 09:34:05;;;;;;;2.90;1.70;;;24.10;99.90;;;;;;5053310;28;20025;-69
2022/08/26 09:36:36;;;;;;;7.88;1.50;;;24.20;99.90;;;;;;5054233;28;20044;-70
2022/08/26 09:39:02;;;;;;;5.18;1.40;;;24.30;99.90;;;;;;5054593;28;20033;-69
2022/08/26 09:41:31;;;;;;;5.50;1.35;;;24.30;99.90;;;;;;5054549;28;20575;-69
2022/08/26 09:44:14;;;;;;;5.20;1.48;;;24.30;99.90;;;;;;5070025;28;20036;-70
2022/08/26 09:46:51;;;;;;;5.95;1.83;;;24.30;99.90;;;;;;5072986;28;20065;-69
2022/08/26 09:49:38;;;;;;;4.20;1.15;;;24.20;99.90;;;;;;5038257;28;20619;-69
2022/08/26 09:52:08;;;;;;;5.18;1.63;;;24.20;99.90;;;;;;5054549;28;20017;-69
2022/08/26 09:54:35;;;;;;;6.85;1.30;;;24.30;99.90;;;;;;5039961;28;20049;-69
2022/08/26 09:57:17;;;;;;;3.90;1.30;;;24.40;99.90;;;;;;5043169;28;20021;-69
2022/08/26 09:59:44;;;;;;;7.25;1.20;;;24.40;99.90;;;;;;5045718;28;20558;-69
2022/08/26 10:02:19;;;;;;;2.47;1.10;;;24.20;99.90;;;;;;5053511;28;20028;-70
2022/08/26 10:04:56;;;;;;;4.75;1.27;;;24.20;99.90;;;;;;5052542;28;20033;-68
2022/08/26 10:07:39;;;;;;;2.90;1.17;;;24.30;99.90;;;;;;5052419;28;20465;-69
2022/08/26 10:10:20;;;;;;;5.85;1.40;;;24.40;99.90;;;;;;5053534;28;20046;-69
2022/08/26 10:13:01;;;;;;;6.32;1.75;;;24.40;99.90;;;;;;5054073;28;20027;-68
2022/08/26 10:15:32;;;;;;;4.35;1.33;;;24.20;99.90;;;;;;5040333;28;20052;-68
2022/08/26 10:18:11;;;;;;;5.63;1.77;;;24.20;99.90;;;;;;5053767;28;20028;-69
2022/08/26 10:20:48;;;;;;;7.18;1.60;;;24.20;99.90;;;;;;5053662;28;20017;-69
2022/08/26 10:23:17;;;;;;;7.68;1.67;;;24.20;99.90;;;;;;5053339;28;20028;-69
2022/08/26 10:26:27;;;;;;;4.90;1.50;;;24.20;99.90;;;;;;5051549;28;20029;-69
2022/08/26 10:29:05;;;;;;;9.18;1.75;;;24.20;99.90;;;;;;4993589;28;20048;-70
2022/08/26 10:31:37;;;;;;;6.25;1.83;;;24.20;99.90;;;;;;5053345;28;20128;-70
2022/08/26 10:34:03;;;;;;;6.43;1.65;;;24.30;99.90;;;;;;5061148;28;20033;-69
2022/08/26 10:36:48;;;;;;;7.57;1.67;;;24.20;99.90;;;;;;5061105;28;20055;-71
2022/08/26 10:39:32;;;;;;;4.10;1.80;;;24.20;99.90;;;;;;5058481;28;20107;-71
2022/08/26 10:42:06;;;;;;;5.75;2.08;;;24.20;99.90;;;;;;5061281;28;20047;-71
2022/08/26 10:44:36;;;;;;;9.95;2.10;;;24.20;99.90;;;;;;5045592;28;20083;-71
2022/08/26 10:47:19;;;;;;;4.80;2.08;;;24.20;99.90;;;;;;5051356;28;20370;-71
2022/08/26 10:49:47;;;;;;;4.82;1.90;;;24.20;99.90;;;;;;5064413;28;20043;-69
2022/08/26 10:52:27;;;;;;;4.00;1.77;;;24.20;99.90;;;;;;5072485;28;20025;-70
2022/08/26 10:54:52;;;;;;;9.32;1.80;;;24.20;99.90;;;;;;5065721;28;20028;-70
2022/08/26 10:57:50;;;;;;;7.75;1.88;;;24.20;99.90;;;;;;5035060;28;20025;-70
2022/08/26 11:03:12;;;;;;;5.72;1.77;;;24.30;99.90;;;;;;5051352;28;20500;-70
2022/08/26 11:05:38;;;;;;;4.95;1.83;;;24.30;99.90;;;;;;5052573;28;20385;-70
2022/08/26 11:08:19;;;;;;;6.68;1.73;;;24.30;99.90;;;;;;5038469;28;20519;-69
2022/08/26 11:10:51;;;;;;;4.50;1.52;;;24.30;99.90;;;;;;5052784;28;20496;-70
2022/08/26 11:13:17;;;;;;;5.32;1.25;;;24.40;99.90;;;;;;5064555;28;20040;-69
2022/08/26 11:15:42;;;;;;;7.28;2.03;;;24.40;99.90;;;;;;5058647;28;20033;-69
2022/08/26 11:18:35;;;;;;;4.10;1.35;;;24.40;99.90;;;;;;5057450;28;20091;-70
2022/08/26 11:21:00;;;;;;;6.60;1.75;;;24.40;99.90;;;;;;5057241;28;20621;-71
2022/08/26 11:23:29;;;;;;;7.43;1.65;;;24.50;99.90;;;;;;5057967;28;20024;-69
2022/08/26 11:25:54;;;;;;;6.43;1.65;;;24.40;99.90;;;;;;5057029;28;20029;-70
2022/08/26 11:28:47;;;;;;;4.95;1.75;;;24.40;99.90;;;;;;5059098;28;20337;-70
2022/08/26 11:31:25;;;;;;;8.93;2.03;;;24.50;99.90;;;;;;5056894;28;20033;-71
2022/08/26 11:34:06;;;;;;;5.88;1.60;;;24.40;99.90;;;;;;5059004;28;20025;-70
2022/08/26 11:36:46;;;;;;;4.55;1.63;;;24.40;99.90;;;;;;5059679;28;20491;-71
2022/08/26 11:39:23;;;;;;;6.82;1.80;;;24.40;99.90;;;;;;5042111;28;20107;-70
2022/08/26 11:41:51;;;;;;;4.68;1.15;;;24.40;99.90;;;;;;5040065;28;20029;-71
2022/08/26 11:44:42;;;;;;;3.05;1.52;;;24.40;99.90;;;;;;5042450;28;20020;-71
2022/08/26 11:47:11;;;;;;;7.93;1.33;;;24.30;99.90;;;;;;5051787;28;20036;-71
2022/08/26 11:49:37;;;;;;;7.93;1.70;;;24.30;99.90;;;;;;5056525;28;20497;-71
2022/08/26 11:52:14;;;;;;;6.85;1.30;;;24.20;99.90;;;;;;5057992;28;20033;-71
2022/08/26 11:54:39;;;;;;;7.57;1.40;;;24.20;99.90;;;;;;5050453;28;20025;-72
2022/08/26 11:57:07;;;;;;;5.97;1.40;;;24.10;99.90;;;;;;5032989;28;20017;-71
2022/08/26 11:59:37;;;;;;;9.07;1.30;;;24.10;99.90;;;;;;5049821;28;20060;-71
2022/08/26 12:02:11;;;;;;;7.13;1.33;;;24.00;99.90;;;;;;5050909;28;20017;-72
2022/08/26 12:04:41;;;;;;;6.32;1.20;;;23.90;99.90;;;;;;5031398;28;20533;-72
2022/08/26 12:07:07;;;;;;;9.73;1.90;;;23.90;99.90;;;;;;5050358;28;20022;-71
2022/08/26 12:09:36;;;;;;;11.98;1.60;;;23.90;99.90;;;;;;5050409;28;20393;-72
2022/08/26 12:12:20;;;;;;;10.80;1.23;;;23.80;99.90;;;;;;5053611;28;20036;-71
2022/08/26 12:14:46;;;;;;;5.10;1.17;;;23.80;99.90;;;;;;5055208;28;20029;-72
2022/08/26 12:17:27;;;;;;;5.78;1.13;;;23.80;99.90;;;;;;5037263;28;20636;-73
2022/08/26 12:19:52;;;;;;;6.88;1.73;;;23.80;99.90;;;;;;5041884;28;20086;-71
2022/08/26 12:22:23;;;;;;;6.95;1.48;;;23.80;99.90;;;;;;5065603;28;20481;-71
2022/08/26 12:24:52;;;;;;;4.38;1.65;;;23.60;99.90;;;;;;5063452;28;20070;-71
2022/08/26 12:27:25;;;;;;;9.50;1.88;;;23.60;99.90;;;;;;5063265;28;20030;-72
2022/08/26 12:30:08;;;;;;;6.90;1.58;;;23.50;99.90;;;;;;5049033;28;20025;-71
2022/08/26 12:32:37;;;;;;;11.45;1.70;;;23.50;99.90;;;;;;5036707;28;20381;-70
2022/08/26 12:35:07;;;;;;;10.48;2.75;;;23.50;99.90;;;;;;5055828;28;20056;-68
2022/08/26 12:37:36;;;;;;;11.10;2.00;;;23.50;99.90;;;;;;5057151;28;20465;-67
2022/08/26 12:40:26;;;;;;;10.60;2.17;;;23.50;99.90;;;;;;5050646;28;20025;-67
2022/08/26 12:42:52;;;;;;;11.68;2.00;;;23.40;99.90;;;;;;5051342;28;20037;-66
2022/08/26 12:45:54;;;;;;;7.63;2.28;;;23.40;99.90;;;;;;5056585;28;20025;-66
2022/08/26 12:48:34;;;;;;;7.38;2.40;;;23.40;99.90;;;;;;5049259;28;20556;-66
2022/08/26 12:51:01;;;;;;;10.27;2.20;;;23.30;99.90;;;;;;5037546;28;20017;-66
2022/08/26 12:53:31;;;;;;;9.90;2.92;;;23.40;99.90;;;;;;5052846;28;20036;-68
2022/08/26 12:55:59;;;;;;;10.35;3.33;;;23.30;99.90;;;;;;5054804;28;20385;-67
2022/08/26 12:58:38;;;;;;;9.85;2.80;;;23.30;99.90;;;;;;5036527;28;20099;-73
2022/08/26 13:01:04;;;;;;;6.43;2.42;;;23.20;99.90;;;;;;5037532;28;20066;-69
2022/08/26 13:03:33;;;;;;;6.68;2.10;;;23.30;99.90;;;;;;5053676;28;20071;-66
2022/08/26 13:06:30;;;;;;;9.40;2.50;;;23.20;99.90;;;;;;5055926;28;20068;-68